sensor_id;sensor_type;location;lat;lon;timestamp;temperature;humidity
3069;DHT22;1545;51.728;8.796;2023-09-08T00:00:50;21.10;79.40
3069;DHT22;1545;51.728;8.796;2023-09-08T00:03:16;21.00;79.50
3069;DHT22;1545;51.728;8.796;2023-09-08T00:05:41;21.00;79.70
3069;DHT22;1545;51.728;8.796;2023-09-08T00:08:07;20.90;79.80
3069;DHT22;1545;51.728;8.796;2023-09-08T00:10:32;20.80;80.10
3069;DHT22;1545;51.728;8.796;2023-09-08T00:12:58;20.60;80.30
3069;DHT22;1545;51.728;8.796;2023-09-08T00:15:23;20.50;80.80
3069;DHT22;1545;51.728;8.796;2023-09-08T00:17:49;20.40;81.10
3069;DHT22;1545;51.728;8.796;2023-09-08T00:20:14;20.20;81.50
3069;DHT22;1545;51.728;8.796;2023-09-08T00:22:40;20.00;81.90
3069;DHT22;1545;51.728;8.796;2023-09-08T00:25:06;19.90;82.10
3069;DHT22;1545;51.728;8.796;2023-09-08T00:27:32;19.70;82.20
3069;DHT22;1545;51.728;8.796;2023-09-08T00:29:58;19.50;83.00
3069;DHT22;1545;51.728;8.796;2023-09-08T00:32:23;19.40;83.00
3069;DHT22;1545;51.728;8.796;2023-09-08T00:34:49;19.30;83.20
3069;DHT22;1545;51.728;8.796;2023-09-08T00:37:14;19.30;83.30
3069;DHT22;1545;51.728;8.796;2023-09-08T00:39:40;19.30;83.40
3069;DHT22;1545;51.728;8.796;2023-09-08T00:42:06;19.20;83.60
3069;DHT22;1545;51.728;8.796;2023-09-08T00:44:32;18.90;84.00
3069;DHT22;1545;51.728;8.796;2023-09-08T00:46:58;18.70;84.30
3069;DHT22;1545;51.728;8.796;2023-09-08T00:49:24;18.40;84.80
3069;DHT22;1545;51.728;8.796;2023-09-08T00:51:50;18.30;85.10
3069;DHT22;1545;51.728;8.796;2023-09-08T00:54:16;18.20;85.50
3069;DHT22;1545;51.728;8.796;2023-09-08T00:56:42;18.10;85.90
3069;DHT22;1545;51.728;8.796;2023-09-08T00:59:07;18.00;85.40
3069;DHT22;1545;51.728;8.796;2023-09-08T01:01:34;17.80;86.10
3069;DHT22;1545;51.728;8.796;2023-09-08T01:04:00;17.60;87.50
3069;DHT22;1545;51.728;8.796;2023-09-08T01:06:26;17.50;88.00
3069;DHT22;1545;51.728;8.796;2023-09-08T01:08:53;17.40;88.50
3069;DHT22;1545;51.728;8.796;2023-09-08T01:11:19;17.30;88.40
3069;DHT22;1545;51.728;8.796;2023-09-08T01:13:45;17.30;88.80
3069;DHT22;1545;51.728;8.796;2023-09-08T01:16:10;17.30;89.20
3069;DHT22;1545;51.728;8.796;2023-09-08T01:18:37;17.30;89.40
3069;DHT22;1545;51.728;8.796;2023-09-08T01:21:13;17.10;89.10
3069;DHT22;1545;51.728;8.796;2023-09-08T01:23:52;17.10;89.70
3069;DHT22;1545;51.728;8.796;2023-09-08T01:26:21;17.00;90.00
3069;DHT22;1545;51.728;8.796;2023-09-08T01:28:49;17.10;90.50
3069;DHT22;1545;51.728;8.796;2023-09-08T01:31:16;17.20;90.00
3069;DHT22;1545;51.728;8.796;2023-09-08T01:33:43;17.10;90.00
3069;DHT22;1545;51.728;8.796;2023-09-08T01:36:09;17.20;89.80
3069;DHT22;1545;51.728;8.796;2023-09-08T01:38:35;17.30;89.20
3069;DHT22;1545;51.728;8.796;2023-09-08T01:41:01;17.20;89.40
3069;DHT22;1545;51.728;8.796;2023-09-08T01:43:27;17.20;89.80
3069;DHT22;1545;51.728;8.796;2023-09-08T01:45:53;17.00;90.10
3069;DHT22;1545;51.728;8.796;2023-09-08T01:48:18;16.70;90.70
3069;DHT22;1545;51.728;8.796;2023-09-08T01:50:44;16.60;91.80
3069;DHT22;1545;51.728;8.796;2023-09-08T01:53:09;16.70;92.00
3069;DHT22;1545;51.728;8.796;2023-09-08T01:55:35;16.70;92.00
3069;DHT22;1545;51.728;8.796;2023-09-08T01:58:00;16.60;92.00
3069;DHT22;1545;51.728;8.796;2023-09-08T02:00:26;16.90;91.10
3069;DHT22;1545;51.728;8.796;2023-09-08T02:02:51;16.80;90.50
3069;DHT22;1545;51.728;8.796;2023-09-08T02:05:17;16.70;90.60
3069;DHT22;1545;51.728;8.796;2023-09-08T02:07:42;16.40;91.00
3069;DHT22;1545;51.728;8.796;2023-09-08T02:10:08;16.50;91.50
3069;DHT22;1545;51.728;8.796;2023-09-08T02:12:35;16.50;91.50
3069;DHT22;1545;51.728;8.796;2023-09-08T02:15:00;16.50;91.80
3069;DHT22;1545;51.728;8.796;2023-09-08T02:17:26;16.60;91.50
3069;DHT22;1545;51.728;8.796;2023-09-08T02:19:51;16.80;91.30
3069;DHT22;1545;51.728;8.796;2023-09-08T02:22:18;16.80;91.20
3069;DHT22;1545;51.728;8.796;2023-09-08T02:24:44;16.90;91.10
3069;DHT22;1545;51.728;8.796;2023-09-08T02:27:09;17.00;90.60
3069;DHT22;1545;51.728;8.796;2023-09-08T02:29:35;17.00;90.30
3069;DHT22;1545;51.728;8.796;2023-09-08T02:32:00;16.90;90.30
3069;DHT22;1545;51.728;8.796;2023-09-08T02:34:26;16.80;90.40
3069;DHT22;1545;51.728;8.796;2023-09-08T02:36:51;16.70;89.70
3069;DHT22;1545;51.728;8.796;2023-09-08T02:39:17;16.60;89.80
3069;DHT22;1545;51.728;8.796;2023-09-08T02:41:42;16.40;90.40
3069;DHT22;1545;51.728;8.796;2023-09-08T02:44:08;16.30;92.10
3069;DHT22;1545;51.728;8.796;2023-09-08T02:46:33;16.10;93.70
3069;DHT22;1545;51.728;8.796;2023-09-08T02:48:59;15.90;93.30
3069;DHT22;1545;51.728;8.796;2023-09-08T02:51:25;16.00;93.80
3069;DHT22;1545;51.728;8.796;2023-09-08T02:53:50;16.00;94.70
3069;DHT22;1545;51.728;8.796;2023-09-08T02:56:16;15.90;94.80
3069;DHT22;1545;51.728;8.796;2023-09-08T02:58:41;15.90;95.80
3069;DHT22;1545;51.728;8.796;2023-09-08T03:03:37;15.80;96.30
3069;DHT22;1545;51.728;8.796;2023-09-08T03:06:03;15.70;96.30
3069;DHT22;1545;51.728;8.796;2023-09-08T03:08:28;15.70;96.60
3069;DHT22;1545;51.728;8.796;2023-09-08T03:10:58;15.90;96.20
3069;DHT22;1545;51.728;8.796;2023-09-08T03:13:24;16.00;96.20
3069;DHT22;1545;51.728;8.796;2023-09-08T03:15:51;16.00;96.20
3069;DHT22;1545;51.728;8.796;2023-09-08T03:18:17;16.10;95.90
3069;DHT22;1545;51.728;8.796;2023-09-08T03:20:42;16.20;95.50
3069;DHT22;1545;51.728;8.796;2023-09-08T03:23:09;16.20;95.10
3069;DHT22;1545;51.728;8.796;2023-09-08T03:25:34;16.30;94.60
3069;DHT22;1545;51.728;8.796;2023-09-08T03:28:00;16.30;94.40
3069;DHT22;1545;51.728;8.796;2023-09-08T03:30:25;16.30;94.40
3069;DHT22;1545;51.728;8.796;2023-09-08T03:32:51;16.30;94.40
3069;DHT22;1545;51.728;8.796;2023-09-08T03:35:16;16.30;94.20
3069;DHT22;1545;51.728;8.796;2023-09-08T03:37:42;16.40;94.10
3069;DHT22;1545;51.728;8.796;2023-09-08T03:40:08;16.50;93.50
3069;DHT22;1545;51.728;8.796;2023-09-08T03:42:34;16.50;92.90
3069;DHT22;1545;51.728;8.796;2023-09-08T03:45:00;16.50;93.00
3069;DHT22;1545;51.728;8.796;2023-09-08T03:47:25;16.50;92.60
3069;DHT22;1545;51.728;8.796;2023-09-08T03:49:51;16.50;92.60
3069;DHT22;1545;51.728;8.796;2023-09-08T03:52:16;16.40;92.70
3069;DHT22;1545;51.728;8.796;2023-09-08T03:54:42;16.50;92.80
3069;DHT22;1545;51.728;8.796;2023-09-08T03:57:08;16.50;93.10
3069;DHT22;1545;51.728;8.796;2023-09-08T03:59:33;16.40;93.60
3069;DHT22;1545;51.728;8.796;2023-09-08T04:01:58;16.30;94.10
3069;DHT22;1545;51.728;8.796;2023-09-08T04:04:25;16.20;94.40
3069;DHT22;1545;51.728;8.796;2023-09-08T04:06:54;16.30;94.10
3069;DHT22;1545;51.728;8.796;2023-09-08T04:09:19;16.50;93.00
3069;DHT22;1545;51.728;8.796;2023-09-08T04:11:45;16.70;92.40
3069;DHT22;1545;51.728;8.796;2023-09-08T04:14:10;16.90;91.60
3069;DHT22;1545;51.728;8.796;2023-09-08T04:16:36;17.20;90.30
3069;DHT22;1545;51.728;8.796;2023-09-08T04:19:01;17.60;89.00
3069;DHT22;1545;51.728;8.796;2023-09-08T04:21:27;17.80;87.90
3069;DHT22;1545;51.728;8.796;2023-09-08T04:23:52;17.90;87.40
3069;DHT22;1545;51.728;8.796;2023-09-08T04:26:18;18.10;86.60
3069;DHT22;1545;51.728;8.796;2023-09-08T04:28:43;18.20;86.20
3069;DHT22;1545;51.728;8.796;2023-09-08T04:31:09;18.20;86.10
3069;DHT22;1545;51.728;8.796;2023-09-08T04:33:34;18.20;86.00
3069;DHT22;1545;51.728;8.796;2023-09-08T04:36:00;18.20;86.10
3069;DHT22;1545;51.728;8.796;2023-09-08T04:38:25;18.10;86.20
3069;DHT22;1545;51.728;8.796;2023-09-08T04:40:51;18.10;86.50
3069;DHT22;1545;51.728;8.796;2023-09-08T04:43:16;18.00;86.70
3069;DHT22;1545;51.728;8.796;2023-09-08T04:45:42;18.00;86.90
3069;DHT22;1545;51.728;8.796;2023-09-08T04:48:07;18.00;86.90
3069;DHT22;1545;51.728;8.796;2023-09-08T04:50:33;17.90;86.90
3069;DHT22;1545;51.728;8.796;2023-09-08T04:52:59;18.00;86.70
3069;DHT22;1545;51.728;8.796;2023-09-08T04:55:25;18.00;86.70
3069;DHT22;1545;51.728;8.796;2023-09-08T04:57:50;18.00;86.70
3069;DHT22;1545;51.728;8.796;2023-09-08T05:00:16;18.00;86.70
3069;DHT22;1545;51.728;8.796;2023-09-08T05:02:42;18.10;86.50
3069;DHT22;1545;51.728;8.796;2023-09-08T05:05:07;18.10;86.20
3069;DHT22;1545;51.728;8.796;2023-09-08T05:07:33;18.10;86.20
3069;DHT22;1545;51.728;8.796;2023-09-08T05:09:58;18.10;86.10
3069;DHT22;1545;51.728;8.796;2023-09-08T05:12:24;18.20;86.00
3069;DHT22;1545;51.728;8.796;2023-09-08T05:14:49;18.30;85.80
3069;DHT22;1545;51.728;8.796;2023-09-08T05:17:21;18.40;85.70
3069;DHT22;1545;51.728;8.796;2023-09-08T05:19:46;18.40;85.40
3069;DHT22;1545;51.728;8.796;2023-09-08T05:22:12;18.50;85.30
3069;DHT22;1545;51.728;8.796;2023-09-08T05:24:37;18.50;85.20
3069;DHT22;1545;51.728;8.796;2023-09-08T05:27:03;18.50;85.10
3069;DHT22;1545;51.728;8.796;2023-09-08T05:29:28;18.50;85.10
3069;DHT22;1545;51.728;8.796;2023-09-08T05:31:54;18.60;85.10
3069;DHT22;1545;51.728;8.796;2023-09-08T05:34:20;18.60;85.10
3069;DHT22;1545;51.728;8.796;2023-09-08T05:36:45;18.60;84.70
3069;DHT22;1545;51.728;8.796;2023-09-08T05:39:11;18.70;84.80
3069;DHT22;1545;51.728;8.796;2023-09-08T05:41:38;18.70;84.70
3069;DHT22;1545;51.728;8.796;2023-09-08T05:44:04;18.80;84.60
3069;DHT22;1545;51.728;8.796;2023-09-08T05:46:30;18.80;84.40
3069;DHT22;1545;51.728;8.796;2023-09-08T05:48:55;18.80;84.40
3069;DHT22;1545;51.728;8.796;2023-09-08T05:51:21;18.90;84.10
3069;DHT22;1545;51.728;8.796;2023-09-08T05:53:47;19.00;84.00
3069;DHT22;1545;51.728;8.796;2023-09-08T05:56:13;19.00;84.10
3069;DHT22;1545;51.728;8.796;2023-09-08T05:58:38;19.10;83.90
3069;DHT22;1545;51.728;8.796;2023-09-08T06:01:04;19.10;83.60
3069;DHT22;1545;51.728;8.796;2023-09-08T06:03:30;19.20;83.60
3069;DHT22;1545;51.728;8.796;2023-09-08T06:05:56;19.20;83.40
3069;DHT22;1545;51.728;8.796;2023-09-08T06:08:22;19.30;83.50
3069;DHT22;1545;51.728;8.796;2023-09-08T06:10:47;19.30;83.30
3069;DHT22;1545;51.728;8.796;2023-09-08T06:13:13;19.30;83.10
3069;DHT22;1545;51.728;8.796;2023-09-08T06:15:39;19.40;82.90
3069;DHT22;1545;51.728;8.796;2023-09-08T06:18:04;19.50;82.80
3069;DHT22;1545;51.728;8.796;2023-09-08T06:20:30;19.60;82.60
3069;DHT22;1545;51.728;8.796;2023-09-08T06:22:56;19.60;82.70
3069;DHT22;1545;51.728;8.796;2023-09-08T06:25:21;19.70;82.50
3069;DHT22;1545;51.728;8.796;2023-09-08T06:27:47;19.80;82.60
3069;DHT22;1545;51.728;8.796;2023-09-08T06:30:12;19.80;82.20
3069;DHT22;1545;51.728;8.796;2023-09-08T06:32:39;19.90;82.20
3069;DHT22;1545;51.728;8.796;2023-09-08T06:35:05;20.00;82.10
3069;DHT22;1545;51.728;8.796;2023-09-08T06:37:38;20.10;81.80
3069;DHT22;1545;51.728;8.796;2023-09-08T06:40:05;20.30;81.60
3069;DHT22;1545;51.728;8.796;2023-09-08T06:42:31;20.30;81.20
3069;DHT22;1545;51.728;8.796;2023-09-08T06:44:57;20.50;80.90
3069;DHT22;1545;51.728;8.796;2023-09-08T06:47:23;20.50;80.40
3069;DHT22;1545;51.728;8.796;2023-09-08T06:49:48;20.70;80.50
3069;DHT22;1545;51.728;8.796;2023-09-08T06:52:14;20.80;79.60
3069;DHT22;1545;51.728;8.796;2023-09-08T06:54:39;20.90;79.60
3069;DHT22;1545;51.728;8.796;2023-09-08T06:57:05;21.00;79.40
3069;DHT22;1545;51.728;8.796;2023-09-08T06:59:30;21.10;79.30
3069;DHT22;1545;51.728;8.796;2023-09-08T07:01:57;21.20;78.80
3069;DHT22;1545;51.728;8.796;2023-09-08T07:04:22;21.30;78.70
3069;DHT22;1545;51.728;8.796;2023-09-08T07:06:48;21.40;78.40
3069;DHT22;1545;51.728;8.796;2023-09-08T07:09:15;21.60;78.00
3069;DHT22;1545;51.728;8.796;2023-09-08T07:11:40;21.70;77.80
3069;DHT22;1545;51.728;8.796;2023-09-08T07:14:06;21.80;77.90
3069;DHT22;1545;51.728;8.796;2023-09-08T07:16:31;21.90;77.90
3069;DHT22;1545;51.728;8.796;2023-09-08T07:18:57;22.00;77.40
3069;DHT22;1545;51.728;8.796;2023-09-08T07:21:25;22.10;77.00
3069;DHT22;1545;51.728;8.796;2023-09-08T07:23:50;22.20;77.30
3069;DHT22;1545;51.728;8.796;2023-09-08T07:26:17;22.30;77.40
3069;DHT22;1545;51.728;8.796;2023-09-08T07:28:42;22.40;77.80
3069;DHT22;1545;51.728;8.796;2023-09-08T07:31:08;22.50;77.60
3069;DHT22;1545;51.728;8.796;2023-09-08T07:33:34;22.60;77.40
3069;DHT22;1545;51.728;8.796;2023-09-08T07:36:05;22.70;77.40
3069;DHT22;1545;51.728;8.796;2023-09-08T07:38:31;22.80;77.30
3069;DHT22;1545;51.728;8.796;2023-09-08T07:40:57;23.00;76.90
3069;DHT22;1545;51.728;8.796;2023-09-08T07:43:25;23.10;76.60
3069;DHT22;1545;51.728;8.796;2023-09-08T07:45:51;23.30;76.40
3069;DHT22;1545;51.728;8.796;2023-09-08T07:48:16;23.70;75.70
3069;DHT22;1545;51.728;8.796;2023-09-08T07:50:42;24.20;74.90
3069;DHT22;1545;51.728;8.796;2023-09-08T07:53:07;24.80;74.20
3069;DHT22;1545;51.728;8.796;2023-09-08T07:55:33;25.40;72.60
3069;DHT22;1545;51.728;8.796;2023-09-08T07:58:00;26.20;71.30
3069;DHT22;1545;51.728;8.796;2023-09-08T08:00:26;26.80;70.70
3069;DHT22;1545;51.728;8.796;2023-09-08T08:02:54;27.40;67.60
3069;DHT22;1545;51.728;8.796;2023-09-08T08:05:20;28.10;65.90
3069;DHT22;1545;51.728;8.796;2023-09-08T08:07:46;28.70;64.30
3069;DHT22;1545;51.728;8.796;2023-09-08T08:10:12;29.10;63.60
3069;DHT22;1545;51.728;8.796;2023-09-08T08:12:38;29.60;62.70
3069;DHT22;1545;51.728;8.796;2023-09-08T08:15:05;30.20;61.90
3069;DHT22;1545;51.728;8.796;2023-09-08T08:17:31;31.10;59.50
3069;DHT22;1545;51.728;8.796;2023-09-08T08:19:57;31.60;58.40
3069;DHT22;1545;51.728;8.796;2023-09-08T08:22:38;32.60;55.50
3069;DHT22;1545;51.728;8.796;2023-09-08T08:25:04;32.50;55.70
3069;DHT22;1545;51.728;8.796;2023-09-08T08:27:30;32.80;55.30
3069;DHT22;1545;51.728;8.796;2023-09-08T08:29:57;33.30;53.50
3069;DHT22;1545;51.728;8.796;2023-09-08T08:32:25;33.60;52.90
3069;DHT22;1545;51.728;8.796;2023-09-08T08:34:50;33.70;53.40
3069;DHT22;1545;51.728;8.796;2023-09-08T08:37:16;33.70;53.20
3069;DHT22;1545;51.728;8.796;2023-09-08T08:39:42;33.50;53.30
3069;DHT22;1545;51.728;8.796;2023-09-08T08:42:08;33.60;53.90
3069;DHT22;1545;51.728;8.796;2023-09-08T08:44:35;33.80;52.60
3069;DHT22;1545;51.728;8.796;2023-09-08T08:47:02;33.80;52.60
3069;DHT22;1545;51.728;8.796;2023-09-08T08:49:30;33.20;53.30
3069;DHT22;1545;51.728;8.796;2023-09-08T08:51:58;32.30;54.80
3069;DHT22;1545;51.728;8.796;2023-09-08T08:54:24;32.10;56.00
3069;DHT22;1545;51.728;8.796;2023-09-08T08:56:50;31.90;56.50
3069;DHT22;1545;51.728;8.796;2023-09-08T08:59:16;32.20;54.70
3069;DHT22;1545;51.728;8.796;2023-09-08T09:01:43;32.20;55.80
3069;DHT22;1545;51.728;8.796;2023-09-08T09:04:09;31.70;54.90
3069;DHT22;1545;51.728;8.796;2023-09-08T09:06:36;31.10;56.70
3069;DHT22;1545;51.728;8.796;2023-09-08T09:09:02;30.90;57.50
3069;DHT22;1545;51.728;8.796;2023-09-08T09:11:29;30.90;58.10
3069;DHT22;1545;51.728;8.796;2023-09-08T09:13:57;30.90;57.50
3069;DHT22;1545;51.728;8.796;2023-09-08T09:16:23;30.70;58.90
3069;DHT22;1545;51.728;8.796;2023-09-08T09:18:57;30.70;58.40
3069;DHT22;1545;51.728;8.796;2023-09-08T09:21:23;30.50;57.90
3069;DHT22;1545;51.728;8.796;2023-09-08T09:23:49;30.30;58.70
3069;DHT22;1545;51.728;8.796;2023-09-08T09:26:25;30.10;59.60
3069;DHT22;1545;51.728;8.796;2023-09-08T09:28:51;30.40;60.00
3069;DHT22;1545;51.728;8.796;2023-09-08T09:31:22;30.50;58.00
3069;DHT22;1545;51.728;8.796;2023-09-08T09:33:48;30.10;59.30
3069;DHT22;1545;51.728;8.796;2023-09-08T09:36:20;29.90;59.40
3069;DHT22;1545;51.728;8.796;2023-09-08T09:38:47;29.50;61.80
3069;DHT22;1545;51.728;8.796;2023-09-08T09:41:12;29.20;62.50
3069;DHT22;1545;51.728;8.796;2023-09-08T09:43:38;28.60;63.80
3069;DHT22;1545;51.728;8.796;2023-09-08T09:46:07;28.00;66.00
3069;DHT22;1545;51.728;8.796;2023-09-08T09:48:34;27.40;67.40
3069;DHT22;1545;51.728;8.796;2023-09-08T09:51:15;27.10;68.60
3069;DHT22;1545;51.728;8.796;2023-09-08T09:53:41;27.10;69.40
3069;DHT22;1545;51.728;8.796;2023-09-08T09:56:08;27.10;68.70
3069;DHT22;1545;51.728;8.796;2023-09-08T09:58:35;27.10;70.10
3069;DHT22;1545;51.728;8.796;2023-09-08T10:01:02;27.20;70.50
3069;DHT22;1545;51.728;8.796;2023-09-08T10:03:29;27.20;68.50
3069;DHT22;1545;51.728;8.796;2023-09-08T10:05:56;27.20;68.90
3069;DHT22;1545;51.728;8.796;2023-09-08T10:08:22;27.30;69.00
3069;DHT22;1545;51.728;8.796;2023-09-08T10:10:47;27.30;68.30
3069;DHT22;1545;51.728;8.796;2023-09-08T10:13:21;27.40;68.20
3069;DHT22;1545;51.728;8.796;2023-09-08T10:15:48;27.50;67.60
3069;DHT22;1545;51.728;8.796;2023-09-08T10:18:16;27.40;67.70
3069;DHT22;1545;51.728;8.796;2023-09-08T10:20:45;27.30;68.70
3069;DHT22;1545;51.728;8.796;2023-09-08T10:25:59;27.50;70.00
3069;DHT22;1545;51.728;8.796;2023-09-08T10:28:27;27.50;68.10
3069;DHT22;1545;51.728;8.796;2023-09-08T10:30:54;27.60;67.40
3069;DHT22;1545;51.728;8.796;2023-09-08T10:33:20;27.80;67.80
3069;DHT22;1545;51.728;8.796;2023-09-08T10:35:46;27.90;66.30
3069;DHT22;1545;51.728;8.796;2023-09-08T10:38:29;27.90;67.40
3069;DHT22;1545;51.728;8.796;2023-09-08T10:43:43;27.90;67.60
3069;DHT22;1545;51.728;8.796;2023-09-08T10:46:09;27.90;67.80
3069;DHT22;1545;51.728;8.796;2023-09-08T10:48:44;27.90;66.30
3069;DHT22;1545;51.728;8.796;2023-09-08T10:51:17;28.00;66.30
3069;DHT22;1545;51.728;8.796;2023-09-08T10:53:46;28.00;66.30
3069;DHT22;1545;51.728;8.796;2023-09-08T10:56:11;28.10;66.40
3069;DHT22;1545;51.728;8.796;2023-09-08T10:58:37;28.20;66.70
3069;DHT22;1545;51.728;8.796;2023-09-08T11:01:05;28.20;67.10
3069;DHT22;1545;51.728;8.796;2023-09-08T11:06:03;28.10;67.30
3069;DHT22;1545;51.728;8.796;2023-09-08T11:08:29;28.20;66.70
3069;DHT22;1545;51.728;8.796;2023-09-08T11:10:55;28.30;67.50
3069;DHT22;1545;51.728;8.796;2023-09-08T11:13:21;28.30;66.00
3069;DHT22;1545;51.728;8.796;2023-09-08T11:15:46;28.30;67.00
3069;DHT22;1545;51.728;8.796;2023-09-08T11:18:12;28.50;64.90
3069;DHT22;1545;51.728;8.796;2023-09-08T11:20:38;28.40;65.20
3069;DHT22;1545;51.728;8.796;2023-09-08T11:23:04;28.10;66.20
3069;DHT22;1545;51.728;8.796;2023-09-08T11:25:32;28.10;67.30
3069;DHT22;1545;51.728;8.796;2023-09-08T11:27:58;28.20;66.70
3069;DHT22;1545;51.728;8.796;2023-09-08T11:30:25;28.30;66.70
3069;DHT22;1545;51.728;8.796;2023-09-08T11:32:50;28.50;68.90
3069;DHT22;1545;51.728;8.796;2023-09-08T11:35:16;28.50;65.20
3069;DHT22;1545;51.728;8.796;2023-09-08T11:37:46;28.50;67.40
3069;DHT22;1545;51.728;8.796;2023-09-08T11:40:12;28.40;65.40
3069;DHT22;1545;51.728;8.796;2023-09-08T11:42:44;28.40;67.00
3069;DHT22;1545;51.728;8.796;2023-09-08T11:45:14;28.40;64.90
3069;DHT22;1545;51.728;8.796;2023-09-08T11:47:43;28.30;65.30
3069;DHT22;1545;51.728;8.796;2023-09-08T11:50:10;28.40;66.60
3069;DHT22;1545;51.728;8.796;2023-09-08T11:52:37;28.60;65.50
3069;DHT22;1545;51.728;8.796;2023-09-08T11:55:04;28.60;65.10
3069;DHT22;1545;51.728;8.796;2023-09-08T11:57:31;28.60;66.00
3069;DHT22;1545;51.728;8.796;2023-09-08T11:59:57;28.70;64.40
3069;DHT22;1545;51.728;8.796;2023-09-08T12:02:23;28.80;65.00
3069;DHT22;1545;51.728;8.796;2023-09-08T12:04:49;28.80;62.50
3069;DHT22;1545;51.728;8.796;2023-09-08T12:07:14;28.90;62.90
3069;DHT22;1545;51.728;8.796;2023-09-08T12:09:41;28.90;63.90
3069;DHT22;1545;51.728;8.796;2023-09-08T12:12:16;28.90;63.90
3069;DHT22;1545;51.728;8.796;2023-09-08T12:14:42;28.90;65.90
3069;DHT22;1545;51.728;8.796;2023-09-08T12:17:08;29.00;63.80
3069;DHT22;1545;51.728;8.796;2023-09-08T12:19:34;29.10;63.60
3069;DHT22;1545;51.728;8.796;2023-09-08T12:22:04;29.20;62.70
3069;DHT22;1545;51.728;8.796;2023-09-08T12:24:47;29.20;63.00
3069;DHT22;1545;51.728;8.796;2023-09-08T12:27:15;29.10;62.60
3069;DHT22;1545;51.728;8.796;2023-09-08T12:29:51;29.10;63.10
3069;DHT22;1545;51.728;8.796;2023-09-08T12:32:16;29.30;63.50
3069;DHT22;1545;51.728;8.796;2023-09-08T12:34:43;29.30;62.00
3069;DHT22;1545;51.728;8.796;2023-09-08T12:37:10;29.20;62.30
3069;DHT22;1545;51.728;8.796;2023-09-08T12:42:03;29.20;62.70
3069;DHT22;1545;51.728;8.796;2023-09-08T12:44:29;29.00;63.30
3069;DHT22;1545;51.728;8.796;2023-09-08T12:46:55;29.00;63.50
3069;DHT22;1545;51.728;8.796;2023-09-08T12:49:20;29.00;64.10
3069;DHT22;1545;51.728;8.796;2023-09-08T12:51:46;29.00;63.90
3069;DHT22;1545;51.728;8.796;2023-09-08T12:54:11;29.10;64.40
3069;DHT22;1545;51.728;8.796;2023-09-08T12:56:37;29.20;64.50
3069;DHT22;1545;51.728;8.796;2023-09-08T12:59:02;29.20;62.90
3069;DHT22;1545;51.728;8.796;2023-09-08T13:01:28;29.20;64.00
3069;DHT22;1545;51.728;8.796;2023-09-08T13:03:54;29.30;64.10
3069;DHT22;1545;51.728;8.796;2023-09-08T13:06:20;29.50;62.10
3069;DHT22;1545;51.728;8.796;2023-09-08T13:08:45;29.60;62.00
3069;DHT22;1545;51.728;8.796;2023-09-08T13:11:11;29.70;61.90
3069;DHT22;1545;51.728;8.796;2023-09-08T13:13:37;29.70;62.20
3069;DHT22;1545;51.728;8.796;2023-09-08T13:16:02;29.80;61.40
3069;DHT22;1545;51.728;8.796;2023-09-08T13:18:28;29.60;63.10
3069;DHT22;1545;51.728;8.796;2023-09-08T13:20:56;29.60;63.70
3069;DHT22;1545;51.728;8.796;2023-09-08T13:23:21;29.70;64.20
3069;DHT22;1545;51.728;8.796;2023-09-08T13:25:47;29.60;64.00
3069;DHT22;1545;51.728;8.796;2023-09-08T13:28:12;29.70;63.60
3069;DHT22;1545;51.728;8.796;2023-09-08T13:30:38;29.80;61.10
3069;DHT22;1545;51.728;8.796;2023-09-08T13:33:04;29.80;62.50
3069;DHT22;1545;51.728;8.796;2023-09-08T13:35:29;29.80;62.60
3069;DHT22;1545;51.728;8.796;2023-09-08T13:37:55;29.70;61.90
3069;DHT22;1545;51.728;8.796;2023-09-08T13:40:20;29.80;60.80
3069;DHT22;1545;51.728;8.796;2023-09-08T13:42:46;29.80;61.10
3069;DHT22;1545;51.728;8.796;2023-09-08T13:45:12;29.70;59.40
3069;DHT22;1545;51.728;8.796;2023-09-08T13:47:38;29.80;61.10
3069;DHT22;1545;51.728;8.796;2023-09-08T13:50:04;29.80;59.90
3069;DHT22;1545;51.728;8.796;2023-09-08T13:52:29;29.80;61.50
3069;DHT22;1545;51.728;8.796;2023-09-08T13:54:55;29.90;61.30
3069;DHT22;1545;51.728;8.796;2023-09-08T13:57:20;30.00;60.60
3069;DHT22;1545;51.728;8.796;2023-09-08T13:59:46;30.00;61.20
3069;DHT22;1545;51.728;8.796;2023-09-08T14:02:12;29.80;61.10
3069;DHT22;1545;51.728;8.796;2023-09-08T14:04:37;29.90;60.80
3069;DHT22;1545;51.728;8.796;2023-09-08T14:07:05;30.10;60.10
3069;DHT22;1545;51.728;8.796;2023-09-08T14:09:31;30.10;59.00
3069;DHT22;1545;51.728;8.796;2023-09-08T14:11:56;30.20;58.60
3069;DHT22;1545;51.728;8.796;2023-09-08T14:14:22;30.30;59.00
3069;DHT22;1545;51.728;8.796;2023-09-08T14:16:49;30.30;57.60
3069;DHT22;1545;51.728;8.796;2023-09-08T14:19:15;30.30;59.30
3069;DHT22;1545;51.728;8.796;2023-09-08T14:21:40;30.30;58.30
3069;DHT22;1545;51.728;8.796;2023-09-08T14:24:06;30.30;58.90
3069;DHT22;1545;51.728;8.796;2023-09-08T14:26:32;30.40;60.20
3069;DHT22;1545;51.728;8.796;2023-09-08T14:28:57;30.30;59.80
3069;DHT22;1545;51.728;8.796;2023-09-08T14:31:23;30.20;61.10
3069;DHT22;1545;51.728;8.796;2023-09-08T14:33:48;30.20;60.30
3069;DHT22;1545;51.728;8.796;2023-09-08T14:36:18;30.10;59.70
3069;DHT22;1545;51.728;8.796;2023-09-08T14:38:44;30.10;60.60
3069;DHT22;1545;51.728;8.796;2023-09-08T14:41:10;30.10;60.50
3069;DHT22;1545;51.728;8.796;2023-09-08T14:43:35;30.20;60.70
3069;DHT22;1545;51.728;8.796;2023-09-08T14:46:01;30.10;60.70
3069;DHT22;1545;51.728;8.796;2023-09-08T14:48:28;30.00;61.50
3069;DHT22;1545;51.728;8.796;2023-09-08T14:50:55;29.90;59.70
3069;DHT22;1545;51.728;8.796;2023-09-08T14:53:20;29.90;61.40
3069;DHT22;1545;51.728;8.796;2023-09-08T14:55:46;30.10;61.80
3069;DHT22;1545;51.728;8.796;2023-09-08T14:58:14;30.00;59.90
3069;DHT22;1545;51.728;8.796;2023-09-08T15:00:40;30.00;60.60
3069;DHT22;1545;51.728;8.796;2023-09-08T15:03:06;30.10;58.90
3069;DHT22;1545;51.728;8.796;2023-09-08T15:05:33;30.10;59.50
3069;DHT22;1545;51.728;8.796;2023-09-08T15:07:59;30.10;59.70
3069;DHT22;1545;51.728;8.796;2023-09-08T15:10:25;30.00;59.50
3069;DHT22;1545;51.728;8.796;2023-09-08T15:12:50;29.80;58.90
3069;DHT22;1545;51.728;8.796;2023-09-08T15:15:16;29.80;60.60
3069;DHT22;1545;51.728;8.796;2023-09-08T15:17:44;29.80;59.50
3069;DHT22;1545;51.728;8.796;2023-09-08T15:20:10;29.90;60.40
3069;DHT22;1545;51.728;8.796;2023-09-08T15:22:35;29.80;59.60
3069;DHT22;1545;51.728;8.796;2023-09-08T15:25:01;29.80;59.70
3069;DHT22;1545;51.728;8.796;2023-09-08T15:27:26;29.80;60.10
3069;DHT22;1545;51.728;8.796;2023-09-08T15:29:53;29.70;59.70
3069;DHT22;1545;51.728;8.796;2023-09-08T15:32:18;29.70;61.00
3069;DHT22;1545;51.728;8.796;2023-09-08T15:34:44;29.80;62.10
3069;DHT22;1545;51.728;8.796;2023-09-08T15:37:12;29.80;61.30
3069;DHT22;1545;51.728;8.796;2023-09-08T15:39:38;29.80;61.50
3069;DHT22;1545;51.728;8.796;2023-09-08T15:42:03;29.70;61.70
3069;DHT22;1545;51.728;8.796;2023-09-08T15:44:29;29.70;61.30
3069;DHT22;1545;51.728;8.796;2023-09-08T15:46:54;29.70;61.30
3069;DHT22;1545;51.728;8.796;2023-09-08T15:49:20;29.60;61.70
3069;DHT22;1545;51.728;8.796;2023-09-08T15:51:45;29.60;60.80
3069;DHT22;1545;51.728;8.796;2023-09-08T15:54:11;29.50;60.80
3069;DHT22;1545;51.728;8.796;2023-09-08T15:56:37;29.50;60.50
3069;DHT22;1545;51.728;8.796;2023-09-08T15:59:03;29.50;62.00
3069;DHT22;1545;51.728;8.796;2023-09-08T16:01:29;29.40;61.70
3069;DHT22;1545;51.728;8.796;2023-09-08T16:03:54;29.30;62.10
3069;DHT22;1545;51.728;8.796;2023-09-08T16:06:20;29.30;62.50
3069;DHT22;1545;51.728;8.796;2023-09-08T16:08:45;29.30;62.80